createdAt,value
2023-01-06T00:01:20.633Z,9.00
2023-01-06T00:03:51.869Z,9.00
2023-01-06T00:06:20.039Z,9.00
2023-01-06T00:08:46.750Z,9.00
2023-01-06T00:11:14.837Z,9.00
2023-01-06T00:13:41.645Z,9.00
2023-01-06T00:16:11.956Z,9.00
2023-01-06T00:18:39.256Z,9.00
2023-01-06T00:21:06.933Z,9.00
2023-01-06T00:23:34.526Z,9.00
2023-01-06T00:26:01.518Z,9.00
2023-01-06T00:28:28.430Z,9.10
2023-01-06T00:30:55.179Z,9.10
2023-01-06T00:33:22.015Z,9.20
2023-01-06T00:35:48.680Z,9.20
2023-01-06T00:38:15.452Z,9.20
2023-01-06T00:40:42.141Z,9.20
2023-01-06T00:43:08.836Z,9.20
2023-01-06T00:45:35.571Z,9.10
2023-01-06T00:48:02.254Z,9.10
2023-01-06T00:50:29.067Z,9.20
2023-01-06T00:52:55.759Z,9.20
2023-01-06T00:55:22.437Z,9.20
2023-01-06T00:57:52.547Z,9.30
2023-01-06T01:00:19.611Z,9.30
2023-01-06T01:02:46.435Z,9.30
2023-01-06T01:05:13.412Z,9.30
2023-01-06T01:07:41.106Z,9.30
2023-01-06T01:10:08.813Z,9.40
2023-01-06T01:12:36.227Z,9.30
2023-01-06T01:15:03.556Z,9.40
2023-01-06T01:17:32.004Z,9.30
2023-01-06T01:20:00.865Z,9.30
2023-01-06T01:22:29.787Z,9.30
2023-01-06T01:24:56.595Z,9.40
2023-01-06T01:27:23.387Z,9.40
2023-01-06T01:29:50.087Z,9.40
2023-01-06T01:32:16.740Z,9.40
2023-01-06T01:34:43.364Z,9.40
2023-01-06T01:37:10.101Z,9.40
2023-01-06T01:39:36.962Z,9.40
2023-01-06T01:42:03.836Z,9.40
2023-01-06T01:44:57.642Z,9.40
2023-01-06T01:47:26.712Z,9.40
2023-01-06T01:49:57.546Z,9.40
2023-01-06T01:52:25.320Z,9.40
2023-01-06T01:54:53.947Z,9.40
2023-01-06T01:57:27.094Z,9.40
2023-01-06T01:59:54.233Z,9.50
2023-01-06T02:02:22.688Z,9.50
2023-01-06T02:04:53.275Z,9.50
2023-01-06T02:07:21.578Z,9.50
2023-01-06T02:10:16.848Z,9.50
2023-01-06T02:12:45.833Z,9.50
2023-01-06T02:15:38.017Z,9.50
2023-01-06T02:18:16.659Z,9.60
2023-01-06T02:21:04.421Z,9.60
2023-01-06T02:23:54.140Z,9.50
2023-01-06T02:27:08.047Z,9.50
2023-01-06T02:29:37.688Z,9.50
2023-01-06T02:32:38.163Z,9.50
2023-01-06T02:35:26.689Z,9.40
2023-01-06T02:37:56.399Z,9.40
2023-01-06T02:41:03.099Z,9.50
2023-01-06T02:43:37.453Z,9.50
2023-01-06T02:46:36.692Z,9.40
2023-01-06T02:49:16.435Z,9.50
2023-01-06T02:52:03.359Z,9.40
2023-01-06T02:54:59.036Z,9.40
2023-01-06T02:57:43.713Z,9.40
2023-01-06T03:00:26.041Z,9.50
2023-01-06T03:03:07.561Z,9.50
2023-01-06T03:05:36.990Z,9.50
2023-01-06T03:08:11.730Z,9.50
2023-01-06T03:10:40.647Z,9.60
2023-01-06T03:13:19.747Z,9.60
2023-01-06T03:15:46.477Z,9.70
2023-01-06T03:18:13.164Z,9.70
2023-01-06T03:20:39.964Z,9.70
2023-01-06T03:23:06.752Z,9.70
2023-01-06T03:25:33.503Z,9.70
2023-01-06T03:28:00.183Z,9.70
2023-01-06T03:30:45.371Z,9.70
2023-01-06T03:33:32.207Z,9.70
2023-01-06T03:36:02.579Z,9.70
2023-01-06T03:38:50.630Z,9.70
2023-01-06T03:41:22.993Z,9.70
2023-01-06T03:43:59.069Z,9.70
2023-01-06T03:46:34.694Z,9.70
2023-01-06T03:49:28.501Z,9.70
2023-01-06T03:52:00.158Z,9.60
2023-01-06T03:54:37.727Z,9.50
2023-01-06T03:57:04.471Z,9.50
2023-01-06T03:59:35.836Z,9.40
2023-01-06T04:02:05.611Z,9.50
2023-01-06T04:04:32.403Z,9.40
2023-01-06T04:06:59.334Z,9.40
2023-01-06T04:09:25.975Z,9.50
2023-01-06T04:12:11.138Z,9.50
2023-01-06T04:14:37.884Z,9.50
2023-01-06T04:17:04.523Z,9.60
2023-01-06T04:19:31.297Z,9.60
2023-01-06T04:21:57.915Z,9.60
2023-01-06T04:24:24.589Z,9.50
2023-01-06T04:26:51.270Z,9.60
2023-01-06T04:29:17.979Z,9.60
2023-01-06T04:31:44.769Z,9.60
2023-01-06T04:34:11.449Z,9.50
2023-01-06T04:36:38.310Z,9.50
2023-01-06T04:39:05.128Z,9.50
2023-01-06T04:41:32.190Z,9.50
2023-01-06T04:43:58.953Z,9.50
2023-01-06T04:46:25.612Z,9.50
2023-01-06T04:48:52.231Z,9.50
2023-01-06T04:51:18.941Z,9.40
2023-01-06T04:53:45.656Z,9.50
2023-01-06T04:56:13.711Z,9.50
2023-01-06T04:58:40.535Z,9.50
2023-01-06T05:01:11.246Z,9.50
2023-01-06T05:03:38.735Z,9.50
2023-01-06T05:06:11.215Z,9.50
2023-01-06T05:08:39.354Z,9.50
2023-01-06T05:11:18.135Z,9.50
2023-01-06T05:13:45.492Z,9.50
2023-01-06T05:16:22.931Z,9.50
2023-01-06T05:18:49.776Z,9.40
2023-01-06T05:21:16.676Z,9.50
2023-01-06T05:23:43.354Z,9.50
2023-01-06T05:26:15.662Z,9.50
2023-01-06T05:28:42.238Z,9.50
2023-01-06T05:31:10.573Z,9.50
2023-01-06T05:33:37.288Z,9.50
2023-01-06T05:36:06.637Z,9.50
2023-01-06T05:38:34.372Z,9.50
2023-01-06T05:41:01.936Z,9.50
2023-01-06T05:43:29.277Z,9.50
2023-01-06T05:45:56.505Z,9.50
2023-01-06T05:48:29.050Z,9.40
2023-01-06T05:51:03.789Z,9.40
2023-01-06T05:53:34.932Z,9.40
2023-01-06T05:56:06.249Z,9.40
2023-01-06T05:58:33.516Z,9.40
2023-01-06T06:01:01.802Z,9.40
2023-01-06T06:03:28.628Z,9.40
2023-01-06T06:05:55.344Z,9.40
2023-01-06T06:08:21.981Z,9.40
2023-01-06T06:10:48.613Z,9.40
2023-01-06T06:13:15.261Z,9.40
2023-01-06T06:15:41.911Z,9.40
2023-01-06T06:18:08.566Z,9.30
2023-01-06T06:20:35.197Z,9.40
2023-01-06T06:23:01.836Z,9.40
2023-01-06T06:25:29.443Z,9.40
2023-01-06T06:27:59.990Z,9.40
2023-01-06T06:30:26.766Z,9.40
2023-01-06T06:32:53.425Z,9.40
2023-01-06T06:35:20.075Z,9.40
2023-01-06T06:37:46.776Z,9.30
2023-01-06T06:40:13.426Z,9.30
2023-01-06T06:42:40.136Z,9.30
2023-01-06T06:45:07.407Z,9.30
2023-01-06T06:47:34.150Z,9.30
2023-01-06T06:50:00.836Z,9.10
2023-01-06T06:52:27.512Z,9.00
2023-01-06T06:54:54.131Z,8.80
2023-01-06T06:57:20.737Z,8.80
2023-01-06T06:59:47.377Z,8.70
2023-01-06T07:02:14.120Z,8.80
2023-01-06T07:04:40.905Z,8.70
2023-01-06T07:07:07.575Z,8.70
2023-01-06T07:09:34.253Z,8.70
2023-01-06T07:12:00.977Z,8.80
2023-01-06T07:14:27.607Z,8.70
2023-01-06T07:16:54.214Z,8.80
2023-01-06T07:19:20.852Z,8.80
2023-01-06T07:21:47.493Z,8.80
2023-01-06T07:24:14.177Z,8.70
2023-01-06T07:26:40.844Z,8.80
2023-01-06T07:29:07.511Z,8.90
2023-01-06T07:31:34.304Z,8.80
2023-01-06T07:34:01.039Z,8.60
2023-01-06T07:36:27.682Z,8.50
2023-01-06T07:38:54.391Z,8.30
2023-01-06T07:41:21.062Z,8.20
2023-01-06T07:43:47.803Z,7.90
2023-01-06T07:46:17.216Z,7.90
2023-01-06T07:48:43.881Z,7.80
2023-01-06T07:51:10.515Z,7.80
2023-01-06T07:53:37.252Z,7.70
2023-01-06T07:56:03.995Z,7.60
2023-01-06T07:58:31.338Z,7.60
2023-01-06T08:00:57.980Z,7.70
2023-01-06T08:03:24.714Z,7.60
2023-01-06T08:05:51.429Z,7.70
2023-01-06T08:08:18.127Z,7.80
2023-01-06T08:10:44.891Z,7.70
2023-01-06T08:13:12.001Z,7.80
2023-01-06T08:15:39.197Z,7.90
2023-01-06T08:18:06.397Z,7.90
2023-01-06T08:20:34.168Z,7.80
2023-01-06T08:23:01.624Z,7.90
2023-01-06T08:25:28.314Z,7.90
2023-01-06T08:27:55.015Z,7.90
2023-01-06T08:30:21.799Z,7.90
2023-01-06T08:32:49.404Z,8.00
2023-01-06T08:35:16.827Z,8.00
2023-01-06T08:37:43.593Z,8.10
2023-01-06T08:40:10.782Z,8.10
2023-01-06T08:42:37.496Z,8.10
2023-01-06T08:45:04.604Z,8.10
2023-01-06T08:47:31.246Z,8.20
2023-01-06T08:49:57.926Z,8.30
2023-01-06T08:52:24.570Z,8.40
2023-01-06T08:54:51.387Z,8.50
2023-01-06T08:57:18.053Z,8.50
2023-01-06T08:59:44.795Z,8.70
2023-01-06T09:02:12.104Z,8.80
2023-01-06T09:04:38.905Z,8.90
2023-01-06T09:07:05.773Z,9.10
2023-01-06T09:09:32.539Z,9.10
2023-01-06T09:11:59.280Z,9.20
2023-01-06T09:14:25.989Z,9.40
2023-01-06T09:16:52.702Z,9.30
2023-01-06T09:19:20.472Z,9.30
2023-01-06T09:21:47.200Z,9.40
2023-01-06T09:24:15.328Z,9.40
2023-01-06T09:26:42.268Z,9.30
2023-01-06T09:29:09.116Z,9.50
2023-01-06T09:31:35.933Z,9.50
2023-01-06T09:34:02.685Z,9.40
2023-01-06T09:36:29.305Z,9.40
2023-01-06T09:38:56.022Z,9.50
2023-01-06T09:41:57.642Z,9.50
2023-01-06T09:44:47.600Z,9.50
2023-01-06T09:47:20.363Z,9.50
2023-01-06T09:49:49.783Z,9.50
2023-01-06T09:52:25.318Z,9.30
2023-01-06T09:55:00.266Z,9.50
2023-01-06T09:57:43.883Z,9.40
2023-01-06T10:00:22.820Z,9.30
2023-01-06T10:02:49.661Z,9.30
2023-01-06T10:05:45.429Z,9.30
2023-01-06T10:08:23.173Z,9.40
2023-01-06T10:11:10.236Z,9.40
2023-01-06T10:13:45.977Z,9.40
2023-01-06T10:16:34.882Z,9.60
2023-01-06T10:19:28.864Z,9.60
2023-01-06T10:22:29.595Z,9.60
2023-01-06T10:25:02.153Z,9.70
2023-01-06T10:27:54.379Z,9.70
2023-01-06T10:30:33.917Z,9.80
2023-01-06T10:33:04.739Z,9.80
2023-01-06T10:35:32.103Z,9.70
2023-01-06T10:38:03.032Z,9.90
2023-01-06T10:40:30.714Z,9.80
2023-01-06T10:43:04.085Z,9.90
2023-01-06T10:45:47.912Z,10.00
2023-01-06T10:48:18.764Z,10.00
2023-01-06T10:50:45.839Z,10.00
2023-01-06T10:53:13.837Z,10.00
2023-01-06T10:55:46.630Z,10.00
2023-01-06T10:58:45.491Z,10.00
2023-01-06T11:01:17.163Z,10.10
2023-01-06T11:03:45.689Z,10.00
2023-01-06T11:06:30.298Z,10.00
2023-01-06T11:08:58.136Z,9.90
2023-01-06T11:11:29.390Z,10.00
2023-01-06T11:14:00.793Z,10.00
2023-01-06T11:16:32.957Z,9.90
2023-01-06T11:19:08.072Z,10.00
2023-01-06T11:21:44.288Z,9.90
2023-01-06T11:24:31.301Z,10.00
2023-01-06T11:27:14.228Z,10.00
2023-01-06T11:29:40.951Z,10.00
2023-01-06T11:32:24.424Z,9.90
2023-01-06T11:34:57.612Z,10.10
2023-01-06T11:37:43.201Z,10.10
2023-01-06T11:40:21.600Z,10.20
2023-01-06T11:42:51.291Z,10.20
2023-01-06T11:45:38.859Z,10.10
2023-01-06T11:48:18.571Z,9.90
2023-01-06T11:50:57.226Z,10.10
2023-01-06T11:53:27.224Z,10.20
2023-01-06T11:56:02.491Z,10.00
2023-01-06T11:58:35.676Z,9.90
2023-01-06T12:01:34.391Z,10.00
2023-01-06T12:04:30.587Z,10.10
2023-01-06T12:07:07.262Z,10.20
2023-01-06T12:09:38.332Z,10.10
2023-01-06T12:12:09.737Z,10.30
2023-01-06T12:14:40.016Z,10.40
2023-01-06T12:17:33.316Z,10.30
2023-01-06T12:20:05.900Z,10.40
2023-01-06T12:22:41.753Z,10.60
2023-01-06T12:25:31.279Z,10.70
2023-01-06T12:28:04.937Z,10.70
2023-01-06T12:30:44.593Z,10.80
2023-01-06T12:33:16.457Z,11.00
2023-01-06T12:35:45.175Z,10.60
2023-01-06T12:38:35.965Z,10.60
2023-01-06T12:41:09.802Z,10.60
2023-01-06T12:43:41.063Z,10.50
2023-01-06T12:46:15.061Z,10.40
2023-01-06T12:48:56.155Z,10.40
2023-01-06T12:51:44.180Z,10.40
2023-01-06T12:54:14.240Z,10.10
2023-01-06T12:57:04.866Z,10.10
2023-01-06T12:59:56.499Z,10.30
2023-01-06T13:02:32.642Z,10.30
2023-01-06T13:05:06.131Z,10.10
2023-01-06T13:08:00.908Z,10.00
2023-01-06T13:10:48.639Z,9.90
2023-01-06T13:14:07.730Z,9.80
2023-01-06T13:16:57.021Z,9.80
2023-01-06T13:19:23.714Z,9.80
2023-01-06T13:21:57.680Z,9.80
2023-01-06T13:24:30.277Z,9.80
2023-01-06T13:27:08.917Z,9.60
2023-01-06T13:30:00.201Z,9.60
2023-01-06T13:32:36.056Z,9.80
2023-01-06T13:35:23.803Z,9.60
2023-01-06T13:38:12.807Z,9.60
2023-01-06T13:40:41.161Z,9.60
2023-01-06T13:43:28.073Z,9.50
2023-01-06T13:46:00.148Z,9.50
2023-01-06T13:48:49.912Z,9.60
2023-01-06T13:51:19.803Z,9.70
2023-01-06T13:53:47.395Z,9.70
2023-01-06T13:56:14.042Z,9.60
2023-01-06T13:58:49.062Z,9.50
2023-01-06T14:01:18.991Z,9.60
2023-01-06T14:03:47.669Z,9.50
2023-01-06T14:06:23.407Z,9.60
2023-01-06T14:08:59.284Z,9.50
2023-01-06T14:11:35.223Z,9.50
2023-01-06T14:14:28.375Z,9.40
2023-01-06T14:16:56.919Z,9.40
2023-01-06T14:19:27.861Z,9.40
2023-01-06T14:22:13.649Z,9.50
2023-01-06T14:24:47.869Z,9.40
2023-01-06T14:27:14.743Z,9.30
2023-01-06T14:29:44.333Z,9.40
2023-01-06T14:32:31.246Z,9.40
2023-01-06T14:35:19.940Z,9.40
2023-01-06T14:37:51.357Z,9.40
2023-01-06T14:40:24.329Z,9.30
2023-01-06T14:42:52.165Z,9.30
2023-01-06T14:45:29.336Z,9.20
2023-01-06T14:48:24.293Z,9.20
2023-01-06T14:50:56.408Z,9.20
2023-01-06T14:53:47.679Z,9.20
2023-01-06T14:56:20.708Z,9.10
2023-01-06T14:58:47.560Z,9.20
2023-01-06T15:01:25.413Z,9.10
2023-01-06T15:03:58.292Z,9.10
2023-01-06T15:06:27.126Z,9.10
2023-01-06T15:08:55.346Z,9.00
2023-01-06T15:11:26.456Z,9.00
2023-01-06T15:13:53.349Z,9.10
2023-01-06T15:16:28.737Z,9.10
2023-01-06T15:18:55.788Z,9.00
2023-01-06T15:21:23.808Z,9.00
2023-01-06T15:23:52.508Z,9.00
2023-01-06T15:26:23.789Z,9.00
2023-01-06T15:29:05.769Z,9.00
2023-01-06T15:31:37.904Z,9.00
2023-01-06T15:34:27.871Z,9.00
2023-01-06T15:36:56.490Z,9.00
2023-01-06T15:39:28.171Z,9.00
2023-01-06T15:41:56.126Z,9.00
2023-01-06T15:44:33.084Z,9.00
2023-01-06T15:47:11.488Z,9.00
2023-01-06T15:49:48.050Z,9.00
2023-01-06T15:52:25.096Z,8.90
2023-01-06T15:54:55.485Z,8.90
2023-01-06T15:57:22.621Z,8.90
2023-01-06T15:59:59.247Z,8.90
2023-01-06T16:02:30.390Z,8.90
2023-01-06T16:04:59.481Z,9.00
2023-01-06T16:07:40.026Z,8.90
2023-01-06T16:10:33.458Z,8.90
2023-01-06T16:13:04.093Z,8.90
2023-01-06T16:15:35.764Z,8.90
2023-01-06T16:18:02.569Z,8.80
2023-01-06T16:20:29.237Z,8.90
2023-01-06T16:22:56.503Z,8.70
2023-01-06T16:25:24.972Z,8.70
2023-01-06T16:27:53.860Z,8.70
2023-01-06T16:30:39.189Z,8.70
2023-01-06T16:33:05.956Z,8.70
2023-01-06T16:35:34.435Z,8.60
2023-01-06T16:38:01.383Z,8.60
2023-01-06T16:40:29.122Z,8.60
2023-01-06T16:43:02.600Z,8.60
2023-01-06T16:45:34.425Z,8.60
2023-01-06T16:48:01.299Z,8.60
2023-01-06T16:50:36.781Z,8.60
2023-01-06T16:53:18.635Z,8.60
2023-01-06T16:55:46.260Z,8.60
2023-01-06T16:58:39.304Z,8.60
2023-01-06T17:01:20.973Z,8.60
2023-01-06T17:03:56.745Z,8.60
2023-01-06T17:06:27.462Z,8.60
2023-01-06T17:09:01.730Z,8.60
2023-01-06T17:11:31.670Z,8.60
2023-01-06T17:14:01.945Z,8.60
2023-01-06T17:16:34.156Z,8.60
2023-01-06T17:19:00.818Z,8.50
2023-01-06T17:21:33.785Z,8.50
2023-01-06T17:24:23.515Z,8.50
2023-01-06T17:26:57.583Z,8.40
2023-01-06T17:29:27.973Z,8.30
2023-01-06T17:32:00.993Z,8.30
2023-01-06T17:34:33.479Z,8.40
2023-01-06T17:37:11.753Z,8.40
2023-01-06T17:39:41.534Z,8.40
2023-01-06T17:42:08.220Z,8.50
2023-01-06T17:44:43.766Z,8.40
2023-01-06T17:47:16.206Z,8.50
2023-01-06T17:50:18.680Z,8.50
2023-01-06T17:53:05.355Z,8.60
2023-01-06T17:55:45.304Z,8.60
2023-01-06T17:58:18.102Z,8.60
2023-01-06T18:00:45.769Z,8.70
2023-01-06T18:03:18.619Z,8.70
2023-01-06T18:05:45.625Z,8.70
2023-01-06T18:08:16.895Z,8.70
2023-01-06T18:10:45.664Z,8.70
2023-01-06T18:13:32.046Z,8.70
2023-01-06T18:16:00.771Z,8.70
2023-01-06T18:18:37.491Z,8.70
2023-01-06T18:21:16.318Z,8.70
2023-01-06T18:23:46.270Z,8.70
2023-01-06T18:26:49.257Z,8.70
2023-01-06T18:29:25.227Z,8.70
2023-01-06T18:31:53.679Z,8.60
2023-01-06T18:34:26.221Z,8.60
2023-01-06T18:36:54.527Z,8.60
2023-01-06T18:39:25.219Z,8.60
2023-01-06T18:42:02.015Z,8.60
2023-01-06T18:44:29.106Z,8.60
2023-01-06T18:46:55.772Z,8.60
2023-01-06T18:49:26.439Z,8.60
2023-01-06T18:51:53.127Z,8.70
2023-01-06T18:54:21.731Z,8.60
2023-01-06T18:56:48.697Z,8.70
2023-01-06T18:59:18.612Z,8.70
2023-01-06T19:01:50.768Z,8.60
2023-01-06T19:04:31.490Z,8.50
2023-01-06T19:07:05.611Z,8.50
2023-01-06T19:09:43.771Z,8.60
2023-01-06T19:12:15.771Z,8.60
2023-01-06T19:14:45.211Z,8.60
2023-01-06T19:17:27.387Z,8.70
2023-01-06T19:19:56.502Z,8.70
2023-01-06T19:22:27.274Z,8.70
2023-01-06T19:25:04.711Z,8.70
2023-01-06T19:27:31.595Z,8.70
2023-01-06T19:30:13.496Z,8.60
2023-01-06T19:32:40.456Z,8.60
2023-01-06T19:35:22.001Z,8.60
2023-01-06T19:38:00.431Z,8.60
2023-01-06T19:40:31.569Z,8.60
2023-01-06T19:43:10.516Z,8.60
2023-01-06T19:45:37.285Z,8.50
2023-01-06T19:48:27.834Z,8.50
2023-01-06T19:51:02.851Z,8.50
2023-01-06T19:53:41.512Z,8.50
2023-01-06T19:56:21.675Z,8.60
2023-01-06T19:59:12.979Z,8.60
2023-01-06T20:01:39.723Z,8.60
2023-01-06T20:04:26.837Z,8.60
2023-01-06T20:06:54.104Z,8.60
2023-01-06T20:09:21.922Z,8.60
2023-01-06T20:11:52.540Z,8.60
2023-01-06T20:14:20.106Z,8.60
2023-01-06T20:16:47.440Z,8.60
2023-01-06T20:19:15.779Z,8.60
2023-01-06T20:21:43.240Z,8.60
2023-01-06T20:24:14.339Z,8.60
2023-01-06T20:26:41.056Z,8.60
2023-01-06T20:29:08.171Z,8.60
2023-01-06T20:31:34.878Z,8.60
2023-01-06T20:34:01.537Z,8.60
2023-01-06T20:36:28.298Z,8.60
2023-01-06T20:38:55.098Z,8.60
2023-01-06T20:41:21.778Z,8.60
2023-01-06T20:43:48.432Z,8.60
2023-01-06T20:46:15.194Z,8.60
2023-01-06T20:48:41.967Z,8.60
2023-01-06T20:51:08.990Z,8.60
2023-01-06T20:53:36.876Z,8.60
2023-01-06T20:56:03.688Z,8.60
2023-01-06T20:58:30.375Z,8.60
2023-01-06T21:00:57.073Z,8.60
2023-01-06T21:03:23.759Z,8.50
2023-01-06T21:05:50.400Z,8.50
2023-01-06T21:08:17.061Z,8.40
2023-01-06T21:10:43.683Z,8.50
2023-01-06T21:13:10.354Z,8.50
2023-01-06T21:15:37.206Z,8.50
2023-01-06T21:18:04.104Z,8.40
2023-01-06T21:20:30.862Z,8.40
2023-01-06T21:22:57.545Z,8.40
2023-01-06T21:25:24.859Z,8.50
2023-01-06T21:27:51.612Z,8.50
2023-01-06T21:30:18.377Z,8.60
2023-01-06T21:32:45.094Z,8.60
2023-01-06T21:35:11.919Z,8.60
2023-01-06T21:37:38.583Z,8.60
2023-01-06T21:40:08.130Z,8.60
2023-01-06T21:42:53.612Z,8.60
2023-01-06T21:45:20.306Z,8.60
2023-01-06T21:47:47.065Z,8.60
2023-01-06T21:50:13.822Z,8.60
2023-01-06T21:52:40.569Z,8.60
2023-01-06T21:55:07.720Z,8.60
2023-01-06T21:57:35.995Z,8.60
2023-01-06T22:00:04.509Z,8.60
2023-01-06T22:02:31.320Z,8.50
2023-01-06T22:04:58.205Z,8.60
2023-01-06T22:07:25.084Z,8.50
2023-01-06T22:09:53.070Z,8.50
2023-01-06T22:12:20.353Z,8.50
2023-01-06T22:14:50.652Z,8.40
2023-01-06T22:17:19.150Z,8.40
2023-01-06T22:19:47.100Z,8.40
2023-01-06T22:22:14.319Z,8.50
2023-01-06T22:24:41.277Z,8.50
2023-01-06T22:27:07.934Z,8.40
2023-01-06T22:29:34.599Z,8.50
2023-01-06T22:32:02.857Z,8.50
2023-01-06T22:34:29.685Z,8.50
2023-01-06T22:36:56.659Z,8.50
2023-01-06T22:51:54.646Z,8.20
2023-01-06T22:54:21.361Z,8.10
2023-01-06T22:56:48.056Z,8.10
2023-01-06T22:59:14.703Z,8.10
2023-01-06T23:01:41.493Z,8.10
2023-01-06T23:04:08.279Z,8.20
2023-01-06T23:06:34.994Z,8.20
2023-01-06T23:09:01.780Z,8.30
2023-01-06T23:11:29.154Z,8.30
2023-01-06T23:13:58.141Z,8.40
2023-01-06T23:16:26.766Z,8.40
2023-01-06T23:18:53.961Z,8.40
2023-01-06T23:21:23.509Z,8.40
2023-01-06T23:23:51.215Z,8.40
2023-01-06T23:26:25.341Z,8.40
2023-01-06T23:28:52.998Z,8.40
2023-01-06T23:31:25.511Z,8.40
2023-01-06T23:33:58.570Z,8.50
2023-01-06T23:36:27.814Z,8.50
2023-01-06T23:38:59.280Z,8.60
2023-01-06T23:41:28.776Z,8.50
2023-01-06T23:43:56.486Z,8.50
2023-01-06T23:46:29.438Z,8.50
2023-01-06T23:48:57.058Z,8.60
2023-01-06T23:51:24.940Z,8.60
2023-01-06T23:53:52.576Z,8.50
2023-01-06T23:56:24.937Z,8.50
2023-01-06T23:58:55.571Z,8.50
